Time;durP1;ratioP1;P1;durP2;ratioP2;P2;SDS_P1;SDS_P2;PMS_P1;PMS_P2;Temp;Humidity;BMP_temperature;BMP_pressure;BME280_temperature;BME280_humidity;BME280_pressure;Samples;Min_cycle;Max_cycle;Signal;HPM_P1;HPM_P2
2023/04/16 00:00:37;;;;;;;37.90;23.17;;;;;;;20.35;43.63;102371.59;5079637;28;20055;-37
2023/04/16 00:03:03;;;;;;;39.67;24.17;;;;;;;20.34;43.57;102366.34;5079852;28;20055;-38
2023/04/16 00:05:30;;;;;;;36.70;22.65;;;;;;;20.33;43.78;102367.31;5040581;28;20139;-40
2023/04/16 00:07:57;;;;;;;36.28;22.25;;;;;;;20.33;43.40;102367.31;5078987;27;20236;-39
2023/04/16 00:10:23;;;;;;;36.25;23.50;;;;;;;20.31;44.01;102369.31;5082884;28;20142;-38
2023/04/16 00:12:50;;;;;;;34.50;21.88;;;;;;;20.31;43.67;102358.53;5077946;28;20044;-42
2023/04/16 00:15:16;;;;;;;34.13;22.30;;;;;;;20.29;44.09;102361.34;5076451;28;20048;-36
2023/04/16 00:17:44;;;;;;;35.42;22.23;;;;;;;20.29;44.12;102368.56;5086348;28;20091;-43
2023/04/16 00:20:10;;;;;;;34.28;21.75;;;;;;;20.28;43.78;102356.09;5088682;28;20071;-42
2023/04/16 00:22:37;;;;;;;34.28;20.80;;;;;;;20.27;43.93;102360.63;5086986;28;20055;-42
2023/04/16 00:25:04;;;;;;;34.83;21.35;;;;;;;20.26;44.12;102358.06;5046381;28;20052;-37
2023/04/16 00:27:31;;;;;;;33.28;21.23;;;;;;;20.25;43.58;102361.75;5075739;28;20048;-42
2023/04/16 00:29:57;;;;;;;35.40;21.90;;;;;;;20.25;44.26;102353.66;5082944;28;20048;-36
2023/04/16 00:32:24;;;;;;;34.20;20.98;;;;;;;20.23;43.55;102353.81;5087632;28;20446;-42
2023/04/16 00:34:50;;;;;;;30.38;19.67;;;;;;;20.22;43.53;102352.09;5085031;28;20048;-42
2023/04/16 00:37:17;;;;;;;32.35;20.13;;;;;;;20.21;44.05;102356.63;5088760;28;20328;-42
2023/04/16 00:39:43;;;;;;;31.02;19.13;;;;;;;20.21;44.14;102345.00;5084731;28;20163;-41
2023/04/16 00:42:10;;;;;;;30.92;19.17;;;;;;;20.20;44.20;102346.84;5087958;28;20048;-42
2023/04/16 00:44:36;;;;;;;32.20;19.80;;;;;;;20.19;43.59;102353.22;5053834;28;20036;-36
2023/04/16 00:47:03;;;;;;;31.52;19.60;;;;;;;20.19;44.28;102357.75;5093247;27;20255;-36
2023/04/16 00:49:30;;;;;;;29.30;18.98;;;;;;;20.18;44.16;102351.53;5085283;28;20123;-39
2023/04/16 00:51:57;;;;;;;30.02;19.65;;;;;;;20.17;43.82;102349.78;5087031;28;20053;-42
2023/04/16 00:54:24;;;;;;;28.73;18.23;;;;;;;20.17;43.61;102351.63;5085739;28;20048;-36
2023/04/16 00:56:50;;;;;;;26.60;18.08;;;;;;;20.17;43.89;102354.31;5084487;28;20347;-44
2023/04/16 00:59:18;;;;;;;28.88;19.27;;;;;;;20.16;43.95;102360.69;5086082;28;20417;-38
2023/04/16 01:01:45;;;;;;;27.10;17.92;;;;;;;20.15;43.92;102356.31;5085331;28;20059;-38
2023/04/16 01:04:11;;;;;;;28.45;17.40;;;;;;;20.15;43.56;102356.31;5058855;28;20054;-39
2023/04/16 01:06:38;;;;;;;33.63;17.70;;;;;;;20.13;44.10;102352.88;5090083;27;20079;-41
2023/04/16 01:09:05;;;;;;;27.90;16.27;;;;;;;20.13;43.80;102361.81;5087262;28;20048;-37
2023/04/16 01:11:32;;;;;;;26.23;16.38;;;;;;;20.13;44.47;102366.34;5082639;28;20052;-44
2023/04/16 01:13:58;;;;;;;24.48;15.75;;;;;;;20.13;44.58;102360.94;5085792;28;20039;-41
2023/04/16 01:16:25;;;;;;;23.13;15.48;;;;;;;20.12;44.39;102362.78;5086536;28;20130;-42
2023/04/16 01:18:52;;;;;;;25.95;16.10;;;;;;;20.10;44.38;102364.78;5084620;28;20602;-38
2023/04/16 01:21:18;;;;;;;23.83;15.55;;;;;;;20.11;44.02;102365.63;5083280;28;20059;-42
2023/04/16 01:23:45;;;;;;;26.25;16.65;;;;;;;20.10;44.22;102375.53;5084637;28;20047;-39
2023/04/16 01:26:11;;;;;;;25.75;15.93;;;;;;;20.09;44.36;102363.03;5055473;28;20055;-37
2023/04/16 01:28:39;;;;;;;24.17;15.40;;;;;;;20.08;44.25;102366.72;5089444;27;20055;-37
2023/04/16 01:31:05;;;;;;;20.13;14.23;;;;;;;20.08;44.04;102369.41;5085280;28;20330;-42
2023/04/16 01:33:32;;;;;;;23.70;14.95;;;;;;;20.08;44.34;102369.41;5080596;28;20048;-42
2023/04/16 01:35:59;;;;;;;24.08;14.73;;;;;;;20.07;44.02;102370.41;5085351;28;20052;-40
2023/04/16 01:38:25;;;;;;;21.58;14.38;;;;;;;20.06;44.35;102368.72;5084330;28;20048;-42
2023/04/16 01:40:59;;;;;;;22.83;14.65;;;;;;;20.06;44.34;102371.41;5081036;28;20705;-42
2023/04/16 01:43:25;;;;;;;22.45;14.10;;;;;;;20.06;44.30;102367.84;5079433;28;20460;-44
2023/04/16 01:46:09;;;;;;;22.25;14.68;;;;;;;20.05;44.43;102369.69;5053263;27;20576;-39
2023/04/16 01:48:36;;;;;;;19.85;13.50;;;;;;;20.05;44.53;102361.59;5080944;28;20044;-44
2023/04/16 01:51:03;;;;;;;19.58;12.82;;;;;;;20.04;44.36;102362.59;5078442;28;20058;-44
2023/04/16 01:53:30;;;;;;;21.17;13.73;;;;;;;20.03;44.51;102366.28;5079030;28;20036;-42
2023/04/16 01:55:57;;;;;;;18.60;12.52;;;;;;;20.03;44.33;102374.34;5078185;28;20046;-37
2023/04/16 01:58:23;;;;;;;21.50;13.65;;;;;;;20.03;44.19;102362.72;5076957;28;20056;-42
2023/04/16 02:00:50;;;;;;;20.65;12.65;;;;;;;20.02;43.87;102371.78;5078020;28;20366;-42
2023/04/16 02:03:17;;;;;;;18.27;11.63;;;;;;;20.00;43.93;102358.44;5078366;28;20039;-37
2023/04/16 02:05:44;;;;;;;18.30;12.05;;;;;;;20.00;44.44;102365.69;5048364;27;20066;-36
2023/04/16 02:08:10;;;;;;;19.48;11.85;;;;;;;19.99;44.48;102374.75;5084891;28;20052;-37
2023/04/16 02:10:37;;;;;;;17.65;11.48;;;;;;;19.98;44.66;102371.19;5080837;28;20324;-37
2023/04/16 02:13:03;;;;;;;16.35;10.82;;;;;;;19.96;44.42;102367.78;5081862;28;20074;-37
2023/04/16 02:15:30;;;;;;;17.08;10.43;;;;;;;19.96;43.69;102378.53;5082273;28;20335;-42
2023/04/16 02:17:56;;;;;;;18.42;10.77;;;;;;;19.96;43.95;102373.16;5080240;28;20225;-39
2023/04/16 02:20:23;;;;;;;17.13;10.68;;;;;;;19.95;44.13;102379.53;5082432;28;20329;-42
2023/04/16 02:22:50;;;;;;;16.50;10.13;;;;;;;19.93;43.84;102373.41;5083735;28;20055;-42
2023/04/16 02:25:16;;;;;;;16.58;10.25;;;;;;;19.92;43.74;102377.09;5054337;28;20048;-36
2023/04/16 02:27:43;;;;;;;15.07;9.98;;;;;;;19.91;44.06;102376.22;5099150;27;20055;-36
2023/04/16 02:30:10;;;;;;;15.40;9.07;;;;;;;19.90;44.25;102368.28;5081469;28;20040;-36
2023/04/16 02:32:36;;;;;;;14.25;8.95;;;;;;;19.89;44.29;102372.81;5082087;28;20052;-37
2023/04/16 02:35:03;;;;;;;14.73;9.57;;;;;;;19.88;44.70;102372.94;5083348;28;20044;-36
2023/04/16 02:37:30;;;;;;;12.88;8.23;;;;;;;19.88;44.17;102383.72;5091748;28;20060;-41
2023/04/16 02:39:56;;;;;;;12.40;8.35;;;;;;;19.85;43.92;102387.50;5091663;28;20067;-38
2023/04/16 02:42:23;;;;;;;12.73;7.93;;;;;;;19.85;44.40;102386.66;5083161;28;20048;-41
2023/04/16 02:44:50;;;;;;;11.48;7.85;;;;;;;19.84;43.93;102382.25;5050046;27;20164;-39
2023/04/16 02:47:16;;;;;;;13.43;7.93;;;;;;;19.84;44.55;102383.09;5100503;27;20055;-36
2023/04/16 02:49:43;;;;;;;14.02;8.68;;;;;;;19.82;44.50;102389.59;5089359;28;20059;-42
2023/04/16 02:52:09;;;;;;;12.80;8.27;;;;;;;19.82;44.15;102386.91;5087826;28;20044;-42
2023/04/16 02:54:36;;;;;;;15.07;8.77;;;;;;;19.81;44.11;102387.88;5088493;28;20052;-42
2023/04/16 02:57:03;;;;;;;11.75;7.72;;;;;;;19.80;44.12;102388.88;5084250;28;20064;-36
2023/04/16 02:59:29;;;;;;;10.20;7.07;;;;;;;19.79;44.79;102393.41;5087918;28;20083;-41
2023/04/16 03:01:56;;;;;;;10.38;7.07;;;;;;;19.78;44.30;102388.13;5089819;28;20052;-36
2023/04/16 03:04:22;;;;;;;13.40;7.10;;;;;;;19.78;44.68;102396.19;5089833;28;20051;-41
2023/04/16 03:06:49;;;;;;;10.88;7.30;;;;;;;19.77;44.14;102398.03;5060016;28;20055;-36
2023/04/16 03:09:16;;;;;;;10.23;6.53;;;;;;;19.76;44.26;102395.50;5081574;28;20082;-41
2023/04/16 03:11:42;;;;;;;10.90;6.68;;;;;;;19.76;44.55;102398.19;5081335;28;20403;-39
2023/04/16 03:14:09;;;;;;;11.20;6.97;;;;;;;19.75;43.99;102399.16;5082515;28;20048;-42
2023/04/16 03:16:35;;;;;;;10.15;6.43;;;;;;;19.75;44.43;102404.56;5080065;28;20052;-42
2023/04/16 03:19:02;;;;;;;10.90;6.32;;;;;;;19.73;44.22;102404.66;5080504;28;20051;-37
2023/04/16 03:21:29;;;;;;;9.77;6.28;;;;;;;19.72;44.68;102397.56;5081770;28;20044;-41
2023/04/16 03:23:56;;;;;;;10.13;6.45;;;;;;;19.72;44.66;102402.97;5078373;28;20050;-42
2023/04/16 03:26:22;;;;;;;10.90;6.57;;;;;;;19.70;44.68;102400.41;5048327;27;20066;-42
2023/04/16 03:28:49;;;;;;;10.45;6.10;;;;;;;19.69;44.18;102404.06;5089911;27;20494;-42
2023/04/16 03:31:15;;;;;;;8.80;5.55;;;;;;;19.69;44.66;102403.22;5079401;28;20044;-42
2023/04/16 03:33:42;;;;;;;9.88;5.65;;;;;;;19.69;44.89;102408.59;5077470;28;20040;-39
2023/04/16 03:36:09;;;;;;;8.85;5.60;;;;;;;19.68;44.78;102406.88;5080008;28;20040;-42
2023/04/16 03:38:35;;;;;;;7.90;5.22;;;;;;;19.66;45.07;102401.63;5083528;28;20346;-37
2023/04/16 03:41:02;;;;;;;8.95;5.03;;;;;;;19.67;44.72;102405.19;5077552;28;20352;-35
2023/04/16 03:43:29;;;;;;;7.95;5.03;;;;;;;19.65;44.14;102404.44;5080196;28;20056;-42
2023/04/16 03:45:56;;;;;;;7.60;5.07;;;;;;;19.64;45.05;102400.91;5044032;28;20097;-37
2023/04/16 03:48:22;;;;;;;8.40;5.28;;;;;;;19.64;44.80;102400.06;5080152;28;20044;-36
2023/04/16 03:50:49;;;;;;;6.88;4.40;;;;;;;19.63;44.78;102401.03;5084399;28;20090;-42
2023/04/16 03:53:15;;;;;;;7.10;4.57;;;;;;;19.62;44.92;102402.88;5095436;28;20324;-36
2023/04/16 03:55:42;;;;;;;7.85;5.25;;;;;;;19.61;44.99;102409.22;5075060;28;20332;-38
2023/04/16 03:58:09;;;;;;;7.72;4.80;;;;;;;19.60;44.53;102407.47;5078207;28;20087;-38
2023/04/16 04:00:35;;;;;;;7.93;4.90;;;;;;;19.60;44.47;102404.78;5076188;28;20038;-41
2023/04/16 04:03:02;;;;;;;7.93;4.55;;;;;;;19.60;44.97;102409.31;5079312;28;20416;-36
2023/04/16 04:05:29;;;;;;;6.38;4.05;;;;;;;19.59;44.40;102407.63;5079621;28;20056;-36
2023/04/16 04:07:55;;;;;;;6.82;4.43;;;;;;;19.58;45.10;102409.44;5056246;27;20055;-42
2023/04/16 04:10:22;;;;;;;7.25;4.20;;;;;;;19.57;44.89;102407.72;5081173;27;20769;-37
2023/04/16 04:12:48;;;;;;;6.75;4.18;;;;;;;19.56;44.41;102414.09;5075992;28;20063;-37
2023/04/16 04:15:15;;;;;;;7.22;4.22;;;;;;;19.56;44.43;102406.03;5075092;28;20058;-36
2023/04/16 04:17:42;;;;;;;6.50;4.38;;;;;;;19.56;44.50;102410.56;5078451;28;20131;-36
2023/04/16 04:20:09;;;;;;;7.13;4.30;;;;;;;19.55;44.92;102408.84;5083152;28;20139;-36
2023/04/16 04:22:35;;;;;;;5.93;3.67;;;;;;;19.54;44.96;102404.44;5085576;28;20138;-41
2023/04/16 04:25:02;;;;;;;5.55;3.67;;;;;;;19.54;44.95;102413.38;5057442;27;20062;-35
2023/04/16 04:27:29;;;;;;;8.05;4.20;;;;;;;19.53;44.86;102406.25;5108711;27;20087;-41
2023/04/16 04:29:55;;;;;;;5.93;3.40;;;;;;;19.51;44.46;102408.25;5085871;28;20316;-41
2023/04/16 04:32:22;;;;;;;5.68;4.30;;;;;;;19.51;44.56;102424.38;5085945;28;20056;-41
2023/04/16 04:34:48;;;;;;;6.07;3.30;;;;;;;19.52;44.61;102409.94;5085934;28;20051;-35
2023/04/16 04:37:15;;;;;;;6.03;3.67;;;;;;;19.52;45.01;102414.47;5087046;28;20047;-35
2023/04/16 04:39:42;;;;;;;5.55;3.47;;;;;;;19.51;44.91;102412.78;5086060;28;20426;-39
2023/04/16 04:42:08;;;;;;;5.28;3.53;;;;;;;19.51;44.66;102415.47;5087793;28;20422;-43
2023/04/16 04:44:35;;;;;;;7.18;3.78;;;;;;;19.50;45.26;102428.06;5085127;28;20139;-42
2023/04/16 04:47:02;;;;;;;7.80;3.72;;;;;;;19.48;44.65;102422.78;5055977;27;20511;-39
2023/04/16 04:49:29;;;;;;;5.25;3.00;;;;;;;19.49;44.42;102424.47;5079222;28;20060;-39
2023/04/16 04:51:56;;;;;;;6.28;3.53;;;;;;;19.48;44.62;102428.16;5078719;28;20063;-35
2023/04/16 04:54:22;;;;;;;4.95;3.28;;;;;;;19.48;44.79;102424.63;5078279;28;20056;-40
2023/04/16 04:56:51;;;;;;;4.25;2.72;;;;;;;19.47;44.18;102425.59;5073184;28;20549;-44
2023/04/16 04:59:21;;;;;;;5.30;3.13;;;;;;;19.47;44.83;102429.16;5076911;28;20060;-36
2023/04/16 05:01:49;;;;;;;4.15;2.95;;;;;;;19.45;44.48;102428.41;5079166;28;20954;-36
2023/04/16 05:04:16;;;;;;;4.93;3.00;;;;;;;19.47;44.75;102430.97;5076620;28;20135;-37
2023/04/16 05:06:43;;;;;;;5.82;3.53;;;;;;;19.46;44.50;102431.97;5038162;28;20062;-39
2023/04/16 05:09:10;;;;;;;5.82;3.05;;;;;;;19.46;44.60;102435.50;5079429;28;20059;-42
2023/04/16 05:11:38;;;;;;;5.28;3.00;;;;;;;19.48;44.36;102441.59;5076134;28;20356;-41
2023/04/16 05:14:04;;;;;;;4.60;3.25;;;;;;;19.52;44.67;102446.75;5076918;28;20055;-39
2023/04/16 05:16:31;;;;;;;4.07;2.75;;;;;;;19.58;44.96;102447.13;5077034;28;20044;-41
2023/04/16 05:18:57;;;;;;;5.63;3.25;;;;;;;19.64;44.67;102446.63;5078037;28;20072;-35
2023/04/16 05:21:25;;;;;;;5.47;3.25;;;;;;;19.70;44.72;102437.22;5072086;28;20080;-39
2023/04/16 05:23:51;;;;;;;4.78;3.13;;;;;;;19.75;44.51;102440.38;5076750;28;20057;-37
2023/04/16 05:26:18;;;;;;;4.97;3.00;;;;;;;19.80;44.44;102437.31;5045889;27;20063;-37
2023/04/16 05:28:45;;;;;;;4.53;2.83;;;;;;;19.82;44.58;102443.41;5103467;27;20354;-37
2023/04/16 05:31:11;;;;;;;4.40;2.63;;;;;;;19.85;44.86;102441.31;5079397;28;20044;-38
2023/04/16 05:33:38;;;;;;;4.30;2.10;;;;;;;19.88;43.85;102442.91;5078936;28;20075;-37
2023/04/16 05:36:05;;;;;;;5.00;2.83;;;;;;;19.92;43.90;102447.91;5076082;28;20052;-36
2023/04/16 05:38:31;;;;;;;3.38;2.63;;;;;;;19.93;43.92;102451.44;5075502;28;20048;-37
2023/04/16 05:40:58;;;;;;;3.33;2.30;;;;;;;19.96;44.28;102451.19;5078201;28;20051;-42
2023/04/16 05:43:24;;;;;;;4.95;2.05;;;;;;;19.96;44.25;102456.59;5080269;28;20055;-42
2023/04/16 05:45:51;;;;;;;3.72;2.42;;;;;;;19.97;44.07;102455.59;5081441;28;20056;-38
2023/04/16 05:48:18;;;;;;;2.97;2.25;;;;;;;19.96;44.22;102462.81;5072684;27;20055;-40
2023/04/16 05:50:45;;;;;;;3.30;2.10;;;;;;;19.95;43.78;102462.94;5084923;28;20036;-43
2023/04/16 05:53:13;;;;;;;3.40;2.42;;;;;;;19.92;44.46;102455.13;5077686;28;20135;-39
2023/04/16 05:55:39;;;;;;;3.50;2.25;;;;;;;19.89;43.92;102458.06;5080383;28;20039;-38
2023/04/16 05:58:06;;;;;;;6.10;2.63;;;;;;;19.86;43.88;102461.88;5079812;28;20052;-43
2023/04/16 06:00:32;;;;;;;4.13;2.33;;;;;;;19.84;44.16;102457.59;5079508;28;20052;-38
2023/04/16 06:02:59;;;;;;;15.40;8.63;;;;;;;19.82;44.49;102460.44;5081583;28;20050;-39
2023/04/16 06:05:26;;;;;;;10.90;5.80;;;;;;;19.82;45.03;102463.13;5077299;28;20048;-38
2023/04/16 06:07:53;;;;;;;12.02;6.43;;;;;;;19.81;44.38;102464.06;5083620;28;20559;-36
2023/04/16 06:10:19;;;;;;;12.70;6.60;;;;;;;19.81;45.05;102465.91;5086218;28;20413;-38
2023/04/16 06:12:46;;;;;;;10.32;6.72;;;;;;;19.79;44.96;102478.66;5082667;28;20139;-42
2023/04/16 06:15:13;;;;;;;10.52;7.03;;;;;;;19.73;44.57;102475.47;5084404;28;20162;-42
2023/04/16 06:17:40;;;;;;;12.57;7.38;;;;;;;19.69;44.59;102468.63;5081889;28;20354;-40
2023/04/16 06:20:07;;;;;;;15.30;8.57;;;;;;;19.62;44.98;102480.03;5082715;28;20055;-43
2023/04/16 06:22:33;;;;;;;15.30;7.75;;;;;;;19.58;45.62;102474.00;5085311;28;20331;-37
2023/04/16 06:25:00;;;;;;;17.95;9.25;;;;;;;19.56;45.16;102477.78;5087167;28;20130;-43
2023/04/16 06:27:26;;;;;;;16.70;9.70;;;;;;;19.55;44.85;102476.94;5068901;27;20138;-38
2023/04/16 06:29:53;;;;;;;16.90;9.50;;;;;;;19.54;45.28;102479.72;5090330;27;20446;-40
2023/04/16 06:32:19;;;;;;;16.95;9.95;;;;;;;19.55;45.19;102478.78;5080236;28;20139;-38
2023/04/16 06:34:46;;;;;;;19.00;11.20;;;;;;;19.54;45.61;102483.31;5087074;28;20071;-42
2023/04/16 06:37:13;;;;;;;17.65;10.15;;;;;;;19.56;44.84;102483.16;5090211;28;20366;-42
2023/04/16 06:39:40;;;;;;;18.70;10.32;;;;;;;19.56;45.49;102492.09;5089084;28;20079;-36
2023/04/16 06:42:06;;;;;;;21.42;11.80;;;;;;;19.57;45.46;102491.09;5083444;28;20317;-42
2023/04/16 06:44:34;;;;;;;22.95;12.57;;;;;;;19.57;44.92;102488.41;5080981;28;20079;-37
2023/04/16 06:47:01;;;;;;;22.15;12.18;;;;;;;19.59;44.96;102491.00;5040984;27;20434;-34
2023/04/16 06:49:27;;;;;;;21.42;12.07;;;;;;;19.61;45.04;102503.34;5064712;28;20335;-37
2023/04/16 06:51:55;;;;;;;20.42;12.60;;;;;;;19.64;45.84;102503.13;5061051;28;20052;-37
2023/04/16 06:54:21;;;;;;;21.90;12.07;;;;;;;19.65;45.84;102502.13;5062549;28;20052;-35
2023/04/16 06:56:48;;;;;;;20.90;12.52;;;;;;;19.67;45.43;102505.56;5060948;28;20259;-36
2023/04/16 06:59:14;;;;;;;24.00;13.43;;;;;;;19.70;45.98;102504.47;5062977;28;20329;-44
2023/04/16 07:01:41;;;;;;;19.23;12.05;;;;;;;19.71;46.08;102503.50;5060352;28;20129;-37
2023/04/16 07:04:08;;;;;;;21.13;12.20;;;;;;;19.73;45.66;102507.75;5061322;28;20045;-37
2023/04/16 07:06:35;;;;;;;22.08;12.55;;;;;;;19.74;45.68;102505.94;5023572;28;20195;-35
2023/04/16 07:09:01;;;;;;;20.70;12.15;;;;;;;19.77;45.63;102505.66;5079161;28;20067;-34
2023/04/16 07:11:28;;;;;;;22.65;12.02;;;;;;;19.78;45.53;102501.13;5081394;28;20044;-36
2023/04/16 07:13:55;;;;;;;19.45;11.13;;;;;;;19.80;46.25;102504.56;5080491;28;21055;-41
2023/04/16 07:16:22;;;;;;;20.27;12.65;;;;;;;19.80;45.86;102513.50;5075817;28;20143;-35
2023/04/16 07:18:49;;;;;;;20.60;12.15;;;;;;;19.80;46.57;102510.81;5083093;28;20048;-35
2023/04/16 07:21:15;;;;;;;21.42;12.48;;;;;;;19.82;45.97;102510.66;5083216;28;20044;-35
2023/04/16 07:23:42;;;;;;;21.55;12.90;;;;;;;19.82;46.14;102508.84;5078989;28;20040;-41
2023/04/16 07:26:10;;;;;;;19.48;12.00;;;;;;;19.83;46.42;102523.16;5039202;28;20064;-37
2023/04/16 07:28:36;;;;;;;20.90;13.18;;;;;;;19.83;46.09;102515.09;5044691;28;20066;-38
2023/04/16 07:31:03;;;;;;;23.50;12.52;;;;;;;19.84;45.71;102522.19;5058621;28;20624;-42
2023/04/16 07:33:30;;;;;;;20.13;12.18;;;;;;;19.83;46.45;102521.31;5058463;28;20575;-41
2023/04/16 07:35:56;;;;;;;19.98;12.23;;;;;;;19.84;46.49;102524.88;5057511;28;20053;-36
2023/04/16 07:38:23;;;;;;;19.13;12.05;;;;;;;19.83;46.11;102518.63;5060487;28;22057;-36
2023/04/16 07:40:50;;;;;;;20.38;12.02;;;;;;;19.84;46.77;102520.34;5059668;28;20336;-36
2023/04/16 07:43:16;;;;;;;22.67;13.32;;;;;;;19.85;45.88;102530.09;5069228;28;20052;-35
2023/04/16 07:45:43;;;;;;;20.02;13.18;;;;;;;19.86;46.51;102529.16;5059743;28;20048;-36
2023/04/16 07:48:10;;;;;;;23.40;14.43;;;;;;;19.85;46.00;102526.56;5034569;28;20067;-38
2023/04/16 07:50:36;;;;;;;22.05;13.35;;;;;;;19.85;45.68;102534.63;5060652;28;20044;-34
2023/04/16 07:53:04;;;;;;;23.08;14.40;;;;;;;19.83;45.95;102545.53;5055453;28;20356;-34
2023/04/16 07:55:31;;;;;;;22.10;14.10;;;;;;;19.83;45.91;102550.06;5058582;28;20088;-40
2023/04/16 07:57:57;;;;;;;25.60;14.60;;;;;;;19.81;46.05;102541.25;5062832;28;20411;-41
2023/04/16 08:00:25;;;;;;;23.92;13.85;;;;;;;19.80;46.18;102542.25;5061158;28;20052;-35
2023/04/16 08:02:51;;;;;;;24.40;14.13;;;;;;;19.79;45.96;102541.38;5060517;28;20048;-38
2023/04/16 08:05:18;;;;;;;25.52;14.93;;;;;;;19.78;45.57;102542.38;5064091;28;20059;-36
2023/04/16 08:07:45;;;;;;;25.00;13.95;;;;;;;19.78;45.84;102538.81;5058388;28;20052;-34
2023/04/16 08:10:12;;;;;;;23.00;13.85;;;;;;;19.77;45.36;102555.94;5067918;28;20048;-36
2023/04/16 08:12:38;;;;;;;27.48;15.32;;;;;;;19.76;45.65;102548.84;5059880;28;20147;-36
2023/04/16 08:15:06;;;;;;;26.25;14.65;;;;;;;19.74;46.08;102557.06;5100411;27;20052;-34
2023/04/16 08:17:33;;;;;;;25.30;15.85;;;;;;;19.73;45.59;102558.00;5066411;28;20209;-38
2023/04/16 08:20:00;;;;;;;24.75;15.45;;;;;;;19.73;45.34;102558.00;5064929;28;20040;-34
2023/04/16 08:22:27;;;;;;;24.75;15.25;;;;;;;19.73;45.17;102561.56;5065919;28;20129;-35
2023/04/16 08:24:53;;;;;;;25.50;15.50;;;;;;;19.71;45.61;102558.16;5068300;28;20047;-38
2023/04/16 08:27:20;;;;;;;26.38;15.65;;;;;;;19.71;45.28;102566.22;5064249;27;20222;-34
2023/04/16 08:29:47;;;;;;;24.13;15.50;;;;;;;19.70;45.24;102569.03;5089997;27;20058;-37
2023/04/16 08:32:14;;;;;;;28.73;17.35;;;;;;;19.70;45.21;102569.88;5082363;28;20039;-35
2023/04/16 08:34:40;;;;;;;26.52;16.90;;;;;;;19.69;45.67;102570.84;5078999;28;20063;-36
2023/04/16 08:37:07;;;;;;;27.10;16.75;;;;;;;19.69;45.68;102567.31;5080311;28;20040;-35
2023/04/16 08:39:34;;;;;;;34.67;15.88;;;;;;;19.68;45.03;102569.13;5078457;28;20048;-34
2023/04/16 08:42:03;;;;;;;26.55;16.05;;;;;;;19.67;45.74;102570.13;5079902;28;20486;-35
2023/04/16 08:44:32;;;;;;;26.80;15.77;;;;;;;19.67;45.75;102575.50;5076067;28;20048;-35
2023/04/16 08:47:00;;;;;;;26.63;16.02;;;;;;;19.69;45.10;102578.06;5040533;28;20090;-35
2023/04/16 08:49:28;;;;;;;28.42;16.85;;;;;;;19.70;45.81;102579.81;5080469;28;20047;-40
2023/04/16 08:51:55;;;;;;;28.55;16.10;;;;;;;19.71;46.07;102585.03;5081472;28;20036;-40
2023/04/16 08:54:42;;;;;;;26.98;16.20;;;;;;;19.72;45.49;102586.75;5081568;28;20243;-37
2023/04/16 08:57:11;;;;;;;28.35;16.17;;;;;;;19.72;45.36;102589.44;5076604;28;20142;-39
2023/04/16 08:59:39;;;;;;;27.50;16.30;;;;;;;19.73;45.58;102593.84;5077386;28;20155;-35
2023/04/16 09:02:06;;;;;;;28.05;17.40;;;;;;;19.75;46.30;102590.19;5079216;28;20090;-41
2023/04/16 09:04:33;;;;;;;27.38;16.70;;;;;;;19.75;45.51;102599.13;5076013;28;20043;-36
2023/04/16 09:07:03;;;;;;;29.60;17.70;;;;;;;19.77;46.13;102607.06;5040131;27;20542;-36
2023/04/16 09:09:30;;;;;;;29.38;16.05;;;;;;;19.78;46.26;102600.69;5076097;27;20055;-38
2023/04/16 09:12:00;;;;;;;28.70;17.20;;;;;;;19.79;45.89;102603.28;5078005;28;20055;-40
2023/04/16 09:14:27;;;;;;;28.83;17.38;;;;;;;19.80;46.20;102598.75;5078247;28;20253;-35
2023/04/16 09:16:54;;;;;;;33.97;18.45;;;;;;;19.83;45.95;102601.19;5079538;28;20129;-42
2023/04/16 09:19:22;;;;;;;28.67;17.60;;;;;;;19.84;46.25;102602.91;5077547;28;20048;-41
2023/04/16 09:21:49;;;;;;;27.02;17.45;;;;;;;19.86;46.20;102596.44;5094306;28;20054;-40
2023/04/16 09:24:17;;;;;;;29.30;17.20;;;;;;;19.87;45.85;102599.97;5078526;28;20055;-40
2023/04/16 09:26:44;;;;;;;29.63;17.80;;;;;;;19.89;46.22;102603.38;5033378;28;20539;-38
2023/04/16 09:29:10;;;;;;;30.63;18.95;;;;;;;19.89;46.04;102601.53;5053625;28;20549;-35
2023/04/16 09:31:37;;;;;;;30.67;18.55;;;;;;;19.92;45.75;102603.13;5054544;28;20217;-35
2023/04/16 09:34:07;;;;;;;30.88;18.00;;;;;;;19.92;46.12;102606.69;5058504;28;20060;-40
2023/04/16 09:36:35;;;;;;;32.65;18.10;;;;;;;19.93;46.09;102611.09;5048444;28;20049;-43
2023/04/16 09:39:02;;;;;;;30.02;18.52;;;;;;;19.96;46.47;102612.69;5058627;28;20110;-43
2023/04/16 09:41:31;;;;;;;30.05;18.58;;;;;;;19.97;45.79;102620.63;5055790;28;20048;-39
2023/04/16 09:44:03;;;;;;;30.65;18.98;;;;;;;19.97;46.19;102622.47;5049897;28;20056;-41
2023/04/16 09:46:34;;;;;;;31.80;18.88;;;;;;;19.96;46.18;102623.44;5054543;28;20340;-43
2023/04/16 09:49:18;;;;;;;31.70;19.63;;;;;;;19.95;46.46;102629.81;5039267;28;20651;-37
2023/04/16 09:51:48;;;;;;;32.25;19.85;;;;;;;19.94;46.22;102626.28;5056143;28;20048;-40
2023/04/16 09:54:15;;;;;;;28.83;17.63;;;;;;;19.95;45.80;102627.13;5057218;28;20048;-41
2023/04/16 09:56:43;;;;;;;31.00;18.77;;;;;;;19.93;45.87;102631.75;5056250;28;20075;-42
2023/04/16 09:59:20;;;;;;;29.63;19.10;;;;;;;19.91;45.46;102626.50;5059097;28;20056;-39
2023/04/16 10:01:48;;;;;;;29.83;18.67;;;;;;;19.93;46.03;102638.00;5056689;28;20498;-36
2023/04/16 10:04:15;;;;;;;29.83;18.23;;;;;;;19.93;45.96;102637.13;5051798;28;20215;-35
2023/04/16 10:06:43;;;;;;;28.73;17.58;;;;;;;19.93;46.03;102626.38;5019044;28;20386;-42
2023/04/16 10:09:09;;;;;;;31.52;19.08;;;;;;;19.93;46.00;102635.31;5078327;28;20048;-36
2023/04/16 10:11:36;;;;;;;32.47;19.67;;;;;;;19.94;45.59;102633.50;5076014;28;20548;-36
2023/04/16 10:14:03;;;;;;;30.23;18.98;;;;;;;19.94;45.63;102633.50;5072896;28;20055;-35
2023/04/16 10:16:30;;;;;;;32.92;19.10;;;;;;;19.95;46.16;102630.66;5077514;28;20054;-35
2023/04/16 10:18:58;;;;;;;32.08;19.25;;;;;;;19.96;45.91;102632.38;5076035;28;20133;-35
2023/04/16 10:21:32;;;;;;;32.45;19.70;;;;;;;19.97;46.19;102638.59;5075970;28;21511;-36
2023/04/16 10:23:59;;;;;;;33.35;20.45;;;;;;;19.97;46.26;102642.16;5080101;28;20056;-36
2023/04/16 10:26:28;;;;;;;33.28;19.50;;;;;;;19.98;45.64;102637.66;5080160;28;20444;-38
2023/04/16 10:28:57;;;;;;;36.35;20.10;;;;;;;19.99;46.01;102646.56;5042107;28;20060;-40
2023/04/16 10:31:25;;;;;;;33.55;20.70;;;;;;;19.99;45.61;102642.03;5078940;28;20133;-38
2023/04/16 10:33:52;;;;;;;33.55;20.15;;;;;;;19.99;46.27;102644.75;5078894;28;20047;-35
2023/04/16 10:36:27;;;;;;;33.50;20.52;;;;;;;20.00;46.16;102645.59;5076725;28;20139;-35
2023/04/16 10:38:59;;;;;;;37.53;20.90;;;;;;;20.01;46.25;102644.59;5081966;28;20047;-36
2023/04/16 10:41:26;;;;;;;36.30;21.77;;;;;;;20.03;46.44;102651.59;5080895;28;20054;-35
2023/04/16 10:44:04;;;;;;;35.65;21.42;;;;;;;20.03;46.55;102639.97;5080283;28;20522;-41
2023/04/16 10:46:42;;;;;;;40.55;22.90;;;;;;;20.03;46.60;102638.13;5052340;27;20055;-38
2023/04/16 10:49:18;;;;;;;42.75;24.63;;;;;;;20.02;46.26;102640.94;5077779;28;20059;-35
2023/04/16 10:51:55;;;;;;;44.35;24.30;;;;;;;20.00;46.11;102649.13;5077793;28;20078;-37
2023/04/16 10:54:27;;;;;;;42.20;24.75;;;;;;;19.99;46.08;102641.19;5078590;28;20431;-40
2023/04/16 10:56:59;;;;;;;42.55;23.42;;;;;;;19.97;46.03;102642.16;5078775;28;20463;-35
2023/04/16 10:59:31;;;;;;;45.45;23.95;;;;;;;19.97;46.19;102654.75;5073629;28;20054;-39
2023/04/16 11:02:00;;;;;;;46.92;24.42;;;;;;;19.97;46.00;102649.38;5079539;28;20345;-36
2023/04/16 11:04:32;;;;;;;41.65;22.88;;;;;;;19.96;45.99;102653.91;5079259;28;20117;-36
2023/04/16 11:07:12;;;;;;;42.13;22.55;;;;;;;19.96;45.72;102653.06;5051974;27;20122;-35
2023/04/16 11:10:03;;;;;;;40.65;22.48;;;;;;;19.95;45.64;102656.72;5098179;27;20166;-38
2023/04/16 11:12:41;;;;;;;39.05;22.90;;;;;;;19.96;46.03;102650.34;5075558;28;20058;-35
2023/04/16 11:15:12;;;;;;;38.72;22.10;;;;;;;19.97;46.25;102647.53;5077865;28;21085;-39